Time;durP1;ratioP1;P1;durP2;ratioP2;P2;SDS_P1;SDS_P2;PMS_P1;PMS_P2;Temp;Humidity;BMP_temperature;BMP_pressure;BME280_temperature;BME280_humidity;BME280_pressure;Samples;Min_cycle;Max_cycle;Signal;HPM_P1;HPM_P2
2022/04/07 00:00:52;;;;;;;1.05;0.70;;;17.20;60.60;;;;;;10417584;28;20112;-55
2022/04/07 00:05:53;;;;;;;0.95;0.50;;;17.20;60.70;;;;;;10406305;28;20427;-55
2022/04/07 00:10:54;;;;;;;1.25;0.60;;;17.20;60.80;;;;;;10376310;28;20050;-54
2022/04/07 00:15:56;;;;;;;0.93;0.63;;;17.30;61.10;;;;;;10376339;28;20037;-55
2022/04/07 00:20:56;;;;;;;2.70;1.58;;;17.30;60.50;;;;;;10375958;28;20036;-54
2022/04/07 00:25:57;;;;;;;1.13;0.60;;;17.20;60.70;;;;;;10396519;28;20458;-55
2022/04/07 00:30:58;;;;;;;1.73;0.63;;;17.30;60.60;;;;;;10414693;28;20076;-53
2022/04/07 00:35:59;;;;;;;1.35;0.60;;;17.30;60.40;;;;;;10377539;28;20028;-55
2022/04/07 00:41:00;;;;;;;1.20;0.68;;;17.30;60.50;;;;;;10415946;28;20057;-56
2022/04/07 00:46:02;;;;;;;1.10;0.63;;;17.20;60.70;;;;;;10410266;28;20053;-56
2022/04/07 00:51:05;;;;;;;1.30;0.98;;;17.30;60.40;;;;;;10380123;28;20034;-55
2022/04/07 00:56:07;;;;;;;1.67;0.68;;;17.30;60.50;;;;;;10365533;28;20124;-56
2022/04/07 01:01:08;;;;;;;1.38;0.63;;;17.20;60.60;;;;;;10374291;28;20040;-55
2022/04/07 01:06:09;;;;;;;0.80;0.60;;;17.20;60.50;;;;;;10374553;28;20044;-55
2022/04/07 01:11:10;;;;;;;0.68;0.50;;;17.20;60.80;;;;;;10373630;28;20053;-55
2022/04/07 01:16:11;;;;;;;1.80;0.60;;;17.20;60.60;;;;;;10395059;28;20048;-54
2022/04/07 01:21:14;;;;;;;0.80;0.50;;;17.10;60.80;;;;;;10414020;28;20489;-55
2022/04/07 01:26:16;;;;;;;0.80;0.50;;;17.20;60.70;;;;;;10411910;28;20124;-54
2022/04/07 01:31:16;;;;;;;0.60;0.38;;;17.20;60.50;;;;;;10383192;28;20067;-54
2022/04/07 01:36:17;;;;;;;0.93;0.50;;;17.20;60.60;;;;;;10384998;28;20537;-55
2022/04/07 01:41:19;;;;;;;1.90;1.75;;;17.10;60.80;;;;;;10413709;28;20025;-55
2022/04/07 01:46:22;;;;;;;0.93;0.65;;;17.10;60.80;;;;;;10363161;28;20033;-55
2022/04/07 01:51:24;;;;;;;1.05;0.47;;;17.20;60.40;;;;;;10368530;28;20087;-55
2022/04/07 01:56:25;;;;;;;1.65;0.55;;;17.30;60.10;;;;;;10387933;28;20031;-55
2022/04/07 02:01:26;;;;;;;0.75;0.40;;;17.30;60.20;;;;;;10413281;28;20031;-56
2022/04/07 02:06:27;;;;;;;0.98;0.35;;;17.20;60.30;;;;;;10397082;28;20065;-53
2022/04/07 02:11:28;;;;;;;0.93;0.50;;;17.20;60.50;;;;;;10412853;28;20160;-54
2022/04/07 02:16:30;;;;;;;0.43;0.40;;;17.20;60.40;;;;;;10411547;28;20385;-54
2022/04/07 02:21:30;;;;;;;0.70;0.50;;;17.20;60.20;;;;;;10381495;28;20040;-54
2022/04/07 02:26:31;;;;;;;0.90;0.40;;;17.20;60.30;;;;;;10400193;28;20104;-55
2022/04/07 02:31:32;;;;;;;0.80;0.52;;;17.10;60.30;;;;;;10412083;28;20084;-53
2022/04/07 02:36:33;;;;;;;1.33;0.80;;;17.20;60.10;;;;;;10388512;28;20484;-54
2022/04/07 02:41:33;;;;;;;1.30;0.47;;;17.20;60.00;;;;;;10371580;28;20032;-54
2022/04/07 02:46:35;;;;;;;0.63;0.50;;;17.20;60.00;;;;;;10371886;28;20113;-54
2022/04/07 02:51:35;;;;;;;0.82;0.70;;;17.20;60.10;;;;;;10380408;28;20030;-54
2022/04/07 02:56:36;;;;;;;0.70;0.47;;;17.20;60.30;;;;;;10379794;28;20038;-55
2022/04/07 03:01:37;;;;;;;0.55;0.40;;;17.20;60.20;;;;;;10378945;28;20060;-55
2022/04/07 03:06:38;;;;;;;1.08;0.60;;;17.20;60.00;;;;;;10381513;28;20430;-53
2022/04/07 03:11:38;;;;;;;1.48;0.52;;;17.20;60.20;;;;;;10419229;28;20084;-54
2022/04/07 03:16:40;;;;;;;0.77;0.50;;;17.20;60.30;;;;;;10418649;28;20057;-55
2022/04/07 03:21:40;;;;;;;0.70;0.50;;;17.30;60.00;;;;;;10381837;28;20426;-54
2022/04/07 03:26:41;;;;;;;0.90;0.55;;;17.30;60.20;;;;;;10397614;28;20081;-53
2022/04/07 03:31:42;;;;;;;1.88;0.82;;;17.30;59.80;;;;;;10418667;28;20112;-54
2022/04/07 03:36:43;;;;;;;0.85;0.50;;;17.30;59.90;;;;;;10385812;28;20457;-54
2022/04/07 03:41:43;;;;;;;1.60;0.45;;;17.30;59.80;;;;;;10418375;28;20033;-55
2022/04/07 03:46:44;;;;;;;0.60;0.50;;;17.30;60.30;;;;;;10363139;28;20502;-56
2022/04/07 03:51:45;;;;;;;0.65;0.40;;;17.30;59.90;;;;;;10376956;28;20041;-56
2022/04/07 03:56:45;;;;;;;0.52;0.50;;;17.30;59.80;;;;;;10399500;28;20057;-54
2022/04/07 04:01:47;;;;;;;1.23;0.52;;;17.30;59.70;;;;;;10416809;28;20120;-55
2022/04/07 04:06:48;;;;;;;1.08;0.50;;;17.30;59.80;;;;;;10400288;28;20437;-55
2022/04/07 04:11:48;;;;;;;1.73;0.50;;;17.30;59.70;;;;;;10416648;28;20038;-54
2022/04/07 04:16:50;;;;;;;0.70;0.40;;;17.30;59.50;;;;;;10416114;28;20049;-54
2022/04/07 04:21:51;;;;;;;1.90;0.60;;;17.30;59.60;;;;;;10385772;28;20079;-55
2022/04/07 04:26:52;;;;;;;1.25;0.70;;;17.20;59.70;;;;;;10412965;28;20026;-55
2022/04/07 04:31:52;;;;;;;2.15;0.65;;;17.20;59.80;;;;;;10380629;28;20076;-51
2022/04/07 04:36:53;;;;;;;2.28;0.73;;;17.20;59.90;;;;;;10388133;28;20057;-54
2022/04/07 04:41:54;;;;;;;1.30;0.60;;;17.20;59.70;;;;;;10374194;28;20084;-52
2022/04/07 04:46:55;;;;;;;2.90;0.68;;;17.40;59.70;;;;;;10390455;28;20111;-52
2022/04/07 04:51:55;;;;;;;4.57;1.02;;;17.30;60.80;;;;;;10377196;28;20065;-53
2022/04/07 04:56:56;;;;;;;4.47;0.80;;;17.30;61.80;;;;;;10392368;28;20118;-53
2022/04/07 05:01:57;;;;;;;4.38;0.85;;;17.40;62.00;;;;;;10414467;28;20025;-50
2022/04/07 05:06:58;;;;;;;4.00;0.70;;;17.40;62.60;;;;;;10395839;28;20065;-50
2022/04/07 05:11:59;;;;;;;2.85;0.80;;;17.30;62.80;;;;;;10372737;28;20064;-54
2022/04/07 05:16:59;;;;;;;7.50;1.10;;;17.40;62.50;;;;;;10391466;28;20036;-54
2022/04/07 05:22:00;;;;;;;6.18;1.45;;;17.30;62.90;;;;;;10411639;28;20034;-55
2022/04/07 05:27:01;;;;;;;11.00;1.30;;;17.20;62.70;;;;;;10412014;28;20057;-57
2022/04/07 05:32:01;;;;;;;18.02;2.28;;;17.20;63.00;;;;;;10414104;28;20486;-55
2022/04/07 05:37:03;;;;;;;14.10;1.98;;;17.00;63.30;;;;;;10362561;28;20041;-58
2022/04/07 05:42:05;;;;;;;17.20;2.15;;;17.00;63.50;;;;;;10379216;28;20030;-54
2022/04/07 05:47:06;;;;;;;21.48;2.28;;;16.90;64.00;;;;;;10405903;28;20076;-56
2022/04/07 05:52:07;;;;;;;19.23;2.65;;;16.90;63.60;;;;;;10372575;28;20033;-55
2022/04/07 05:57:07;;;;;;;21.42;4.72;;;17.00;64.50;;;;;;10374998;28;20088;-54
2022/04/07 06:02:08;;;;;;;19.23;3.35;;;17.00;65.60;;;;;;10377455;28;20050;-55
2022/04/07 06:07:09;;;;;;;14.65;2.90;;;17.00;64.70;;;;;;10393193;28;20065;-55
2022/04/07 06:12:09;;;;;;;20.73;3.45;;;17.00;64.60;;;;;;10388903;28;20098;-54
2022/04/07 06:17:10;;;;;;;16.80;3.45;;;16.90;64.40;;;;;;10402462;28;20511;-54
2022/04/07 06:22:12;;;;;;;14.75;2.10;;;16.80;64.20;;;;;;10412192;28;20115;-55
2022/04/07 06:27:13;;;;;;;11.57;3.20;;;16.80;64.10;;;;;;10408342;28;20095;-53
2022/04/07 06:32:13;;;;;;;9.60;3.45;;;16.80;63.90;;;;;;10418740;28;20123;-55
2022/04/07 06:37:14;;;;;;;11.30;2.00;;;16.80;64.00;;;;;;10382248;28;20057;-55
2022/04/07 06:42:15;;;;;;;14.05;2.00;;;16.80;63.70;;;;;;10371905;28;20064;-52
2022/04/07 06:47:16;;;;;;;14.52;2.25;;;16.90;63.40;;;;;;10376234;28;20170;-54
2022/04/07 06:52:18;;;;;;;13.52;2.90;;;16.90;63.20;;;;;;10371248;28;20439;-54
2022/04/07 06:57:19;;;;;;;8.13;1.50;;;16.90;63.10;;;;;;10373296;28;20093;-56
2022/04/07 07:02:19;;;;;;;7.40;1.60;;;16.90;62.80;;;;;;10378492;28;20057;-54
2022/04/07 07:07:20;;;;;;;7.40;1.42;;;17.00;62.60;;;;;;10373445;28;20076;-54
2022/04/07 07:12:21;;;;;;;5.90;1.73;;;17.00;62.60;;;;;;10377731;28;20074;-54
2022/04/07 07:17:22;;;;;;;8.77;1.58;;;17.00;62.50;;;;;;10373418;28;20018;-53
2022/04/07 07:22:23;;;;;;;6.70;1.50;;;17.00;62.30;;;;;;10377589;28;20113;-55
2022/04/07 07:27:24;;;;;;;5.93;1.23;;;17.00;62.10;;;;;;10386407;28;20062;-56
2022/04/07 07:32:25;;;;;;;5.45;1.30;;;17.00;62.10;;;;;;10376929;28;20030;-56
2022/04/07 07:37:25;;;;;;;5.68;1.75;;;17.10;61.90;;;;;;10377341;28;20083;-55
2022/04/07 07:42:26;;;;;;;7.10;1.52;;;17.10;61.90;;;;;;10417384;28;20109;-54
2022/04/07 07:47:27;;;;;;;4.32;1.23;;;17.00;62.50;;;;;;10417382;28;20466;-53
2022/04/07 07:52:27;;;;;;;4.32;0.85;;;17.00;62.10;;;;;;10417458;28;20037;-54
2022/04/07 07:57:28;;;;;;;4.20;1.05;;;16.90;62.10;;;;;;10386360;28;20033;-56
2022/04/07 08:02:31;;;;;;;4.43;1.10;;;17.00;62.00;;;;;;10416937;28;20029;-54
2022/04/07 08:07:32;;;;;;;3.55;0.95;;;17.00;61.80;;;;;;10402284;28;20053;-54
2022/04/07 08:12:32;;;;;;;6.15;1.30;;;17.10;61.50;;;;;;10416576;28;20076;-55
2022/04/07 08:17:34;;;;;;;3.97;0.90;;;17.10;61.50;;;;;;10404923;28;20188;-54
2022/04/07 08:22:35;;;;;;;7.38;2.00;;;17.00;61.50;;;;;;10375321;28;20033;-55
2022/04/07 08:27:36;;;;;;;2.97;1.00;;;17.00;61.70;;;;;;10375069;28;20036;-55
2022/04/07 08:32:37;;;;;;;3.47;1.23;;;17.00;62.20;;;;;;10370481;28;20029;-55
2022/04/07 08:37:38;;;;;;;4.00;0.95;;;17.10;61.50;;;;;;10377982;28;20394;-54
2022/04/07 08:42:38;;;;;;;3.47;0.82;;;17.10;61.50;;;;;;10374487;28;20034;-55
2022/04/07 08:47:40;;;;;;;2.13;1.17;;;17.00;61.50;;;;;;10374592;28;20374;-55
2022/04/07 08:52:41;;;;;;;3.17;0.85;;;17.00;61.60;;;;;;10373240;28;20080;-55
2022/04/07 08:57:43;;;;;;;1.75;0.80;;;16.90;61.80;;;;;;10371789;28;20029;-54
2022/04/07 09:02:43;;;;;;;2.08;0.60;;;16.90;62.00;;;;;;10414636;28;20030;-55
2022/04/07 09:07:46;;;;;;;1.50;0.60;;;16.90;62.20;;;;;;10383766;28;20485;-54
2022/04/07 09:12:47;;;;;;;2.67;0.60;;;16.80;62.20;;;;;;10413961;28;20091;-55
2022/04/07 09:17:54;;;;;;;2.53;0.80;;;16.80;62.30;;;;;;10366824;28;20541;-56
2022/04/07 09:22:59;;;;;;;2.55;0.63;;;16.80;62.40;;;;;;10386485;28;20026;-54
2022/04/07 09:28:00;;;;;;;2.30;1.00;;;16.80;62.50;;;;;;10368796;28;20113;-53
2022/04/07 09:33:02;;;;;;;2.15;0.63;;;16.80;62.50;;;;;;10372676;28;20052;-56
2022/04/07 09:38:04;;;;;;;2.00;0.50;;;16.80;62.50;;;;;;10375965;28;20429;-55
2022/04/07 09:43:04;;;;;;;2.17;0.68;;;16.80;62.50;;;;;;10372349;28;20021;-55
2022/04/07 09:48:06;;;;;;;1.55;0.60;;;16.80;62.50;;;;;;10372338;28;20523;-54
2022/04/07 09:53:07;;;;;;;1.75;0.50;;;16.80;62.40;;;;;;10372018;28;20343;-54
2022/04/07 09:58:11;;;;;;;2.58;0.82;;;16.80;62.50;;;;;;10371963;28;20030;-54
2022/04/07 10:03:13;;;;;;;2.60;0.93;;;16.70;62.40;;;;;;10371950;28;20034;-55
2022/04/07 10:08:16;;;;;;;2.50;0.82;;;16.70;62.70;;;;;;10378195;28;20636;-55
2022/04/07 10:13:17;;;;;;;4.32;0.80;;;16.70;62.80;;;;;;10371206;28;20053;-54
2022/04/07 10:18:54;;;;;;;1.75;0.50;;;16.70;62.80;;;;;;10367419;28;20513;-53
2022/04/07 10:24:19;;;;;;;1.17;0.50;;;16.70;62.90;;;;;;10355672;28;20042;-53
2022/04/07 10:29:23;;;;;;;1.13;0.40;;;16.70;62.90;;;;;;10399743;28;20025;-55
2022/04/07 10:34:32;;;;;;;1.05;0.30;;;16.80;62.70;;;;;;10405440;28;20034;-54
2022/04/07 10:39:33;;;;;;;1.30;0.50;;;16.80;62.50;;;;;;10371281;28;20109;-53
2022/04/07 10:44:34;;;;;;;2.92;0.50;;;16.80;62.50;;;;;;10371012;28;20026;-53
2022/04/07 10:49:35;;;;;;;1.45;0.80;;;16.80;62.50;;;;;;10371382;28;20067;-56
2022/04/07 10:55:12;;;;;;;1.83;0.68;;;16.80;62.50;;;;;;10370790;28;20363;-54
2022/04/07 11:00:18;;;;;;;1.35;0.47;;;16.70;62.40;;;;;;10370788;28;20037;-52
2022/04/07 11:05:24;;;;;;;2.90;0.70;;;16.70;62.60;;;;;;10366622;28;20113;-55
2022/04/07 11:10:47;;;;;;;2.35;1.13;;;16.60;62.70;;;;;;10365919;28;20512;-52
2022/04/07 11:16:03;;;;;;;2.13;0.40;;;16.60;62.90;;;;;;10369945;28;20372;-52
2022/04/07 11:21:09;;;;;;;2.33;0.52;;;16.60;62.80;;;;;;10387861;28;20044;-54
2022/04/07 11:26:26;;;;;;;1.15;0.40;;;16.70;62.40;;;;;;10377487;28;20617;-54
2022/04/07 11:31:48;;;;;;;0.80;0.40;;;16.70;62.30;;;;;;10377872;28;20540;-54
2022/04/07 11:36:49;;;;;;;1.38;0.60;;;16.80;61.80;;;;;;10380583;28;20029;-56
2022/04/07 11:41:50;;;;;;;2.10;0.35;;;16.90;61.60;;;;;;10343179;28;20053;-54
2022/04/07 11:46:50;;;;;;;1.85;0.57;;;16.90;61.60;;;;;;10376610;28;20497;-53
2022/04/07 11:51:51;;;;;;;1.55;0.52;;;16.80;61.70;;;;;;10376485;28;20066;-54
2022/04/07 11:56:52;;;;;;;0.93;0.30;;;16.80;61.60;;;;;;10376446;28;20022;-54
2022/04/07 12:01:52;;;;;;;2.05;0.35;;;16.90;61.30;;;;;;10376102;28;20049;-54
2022/04/07 12:06:53;;;;;;;4.28;0.80;;;16.90;61.20;;;;;;10379883;28;20033;-54
2022/04/07 12:11:54;;;;;;;2.20;0.43;;;16.90;61.40;;;;;;10416392;28;20081;-53
2022/04/07 12:16:55;;;;;;;0.90;0.52;;;16.90;61.60;;;;;;10416461;28;20025;-55
2022/04/07 12:21:58;;;;;;;2.35;0.60;;;16.90;61.60;;;;;;10416543;28;20381;-54
2022/04/07 12:26:59;;;;;;;2.05;1.25;;;16.90;61.50;;;;;;10414882;28;20377;-53
2022/04/07 12:32:07;;;;;;;1.23;0.32;;;16.80;61.50;;;;;;10416003;28;20032;-54
2022/04/07 12:37:08;;;;;;;0.82;0.40;;;16.80;61.50;;;;;;10375379;28;20044;-55
2022/04/07 12:42:08;;;;;;;1.42;0.60;;;16.80;61.50;;;;;;10371576;28;20493;-54
2022/04/07 12:47:13;;;;;;;2.72;0.65;;;16.80;61.60;;;;;;10415285;28;20124;-55
2022/04/07 12:52:14;;;;;;;5.28;0.70;;;16.80;61.70;;;;;;10384267;28;20524;-55
2022/04/07 12:57:15;;;;;;;2.17;0.60;;;16.80;62.00;;;;;;10384114;28;20029;-52
2022/04/07 13:02:16;;;;;;;1.95;1.08;;;16.80;61.80;;;;;;10397153;28;20059;-53
2022/04/07 13:07:18;;;;;;;1.55;0.60;;;16.80;62.00;;;;;;10399670;28;20029;-51
2022/04/07 13:12:18;;;;;;;1.73;0.63;;;16.80;61.80;;;;;;10414036;28;20052;-55
2022/04/07 13:17:19;;;;;;;1.63;0.60;;;16.70;61.90;;;;;;10414014;28;20101;-52
2022/04/07 13:22:21;;;;;;;1.77;0.60;;;16.70;61.90;;;;;;10414011;28;20454;-53
2022/04/07 13:27:22;;;;;;;1.65;0.70;;;16.70;62.10;;;;;;10413905;28;20511;-51
2022/04/07 13:32:24;;;;;;;2.08;0.90;;;16.70;62.00;;;;;;10413189;28;20052;-54
2022/04/07 13:37:24;;;;;;;2.25;0.60;;;16.60;62.00;;;;;;10382248;28;20109;-53
2022/04/07 13:42:25;;;;;;;1.33;0.75;;;16.60;61.70;;;;;;10373248;28;20047;-56
2022/04/07 13:47:26;;;;;;;3.08;0.85;;;16.60;61.60;;;;;;10372697;28;20084;-55
2022/04/07 13:52:27;;;;;;;4.45;0.70;;;16.60;61.90;;;;;;10372067;28;20037;-52
2022/04/07 13:57:28;;;;;;;4.13;0.98;;;16.60;61.50;;;;;;10372023;28;20088;-54
2022/04/07 14:02:29;;;;;;;1.65;0.80;;;16.60;61.40;;;;;;10371970;28;20156;-53
2022/04/07 14:07:30;;;;;;;4.30;0.82;;;16.60;61.60;;;;;;10380745;28;20569;-55
2022/04/07 14:12:31;;;;;;;2.58;0.73;;;16.60;61.60;;;;;;10412058;28;20047;-52
2022/04/07 14:17:32;;;;;;;1.58;0.60;;;16.60;61.60;;;;;;10401132;28;20383;-54
2022/04/07 14:22:32;;;;;;;3.42;0.80;;;16.60;61.70;;;;;;10380134;28;20530;-54
2022/04/07 14:27:33;;;;;;;2.55;0.70;;;16.60;61.80;;;;;;10372116;28;20117;-54
2022/04/07 14:32:35;;;;;;;2.88;0.80;;;16.60;61.40;;;;;;10371113;28;20034;-56
2022/04/07 14:37:35;;;;;;;3.22;0.80;;;16.70;61.30;;;;;;10373765;28;20354;-54
2022/04/07 14:42:36;;;;;;;1.45;0.73;;;16.70;61.10;;;;;;10371082;28;20068;-54
2022/04/07 14:47:38;;;;;;;2.45;0.90;;;16.70;60.90;;;;;;10370983;28;20057;-54
2022/04/07 14:52:38;;;;;;;2.13;0.80;;;16.70;60.90;;;;;;10372698;28;20088;-55
2022/04/07 14:57:39;;;;;;;2.25;0.50;;;16.70;60.90;;;;;;10378991;28;20018;-54
2022/04/07 15:02:40;;;;;;;3.10;0.88;;;16.80;60.40;;;;;;10378598;28;20474;-52
2022/04/07 15:07:41;;;;;;;2.60;0.88;;;16.90;60.10;;;;;;10360449;28;20037;-55
2022/04/07 15:12:42;;;;;;;2.60;0.95;;;16.90;60.10;;;;;;10377907;28;20570;-55
2022/04/07 15:17:42;;;;;;;2.60;0.60;;;16.90;60.10;;;;;;10386660;28;20121;-53
2022/04/07 15:22:43;;;;;;;2.05;1.23;;;16.90;60.20;;;;;;10377661;28;20760;-53
2022/04/07 15:27:44;;;;;;;1.60;0.70;;;16.80;60.40;;;;;;10377837;28;20065;-53
2022/04/07 15:32:45;;;;;;;2.10;0.80;;;16.80;60.50;;;;;;10377236;28;20077;-57
2022/04/07 15:37:46;;;;;;;3.90;1.15;;;16.80;60.50;;;;;;10364853;28;20108;-55
2022/04/07 15:42:46;;;;;;;2.83;1.30;;;16.80;60.10;;;;;;10359799;28;20108;-56
2022/04/07 15:47:47;;;;;;;3.05;0.90;;;16.90;59.80;;;;;;10377186;28;20493;-55
2022/04/07 15:52:48;;;;;;;1.73;0.77;;;16.90;59.80;;;;;;10372158;28;20121;-56
2022/04/07 15:57:49;;;;;;;2.88;0.90;;;17.00;59.60;;;;;;10384882;28;20033;-56
2022/04/07 16:02:50;;;;;;;2.30;0.60;;;17.00;59.60;;;;;;10383087;28;20034;-55
2022/04/07 16:07:50;;;;;;;6.00;1.02;;;16.90;59.80;;;;;;10402200;28;20049;-55
2022/04/07 16:12:51;;;;;;;6.28;0.90;;;16.90;60.80;;;;;;10405607;28;20077;-55
2022/04/07 16:17:52;;;;;;;9.48;1.33;;;17.00;60.60;;;;;;10396244;28;20500;-55
2022/04/07 16:22:52;;;;;;;16.55;3.10;;;17.00;60.60;;;;;;10388557;28;20069;-55
2022/04/07 16:27:53;;;;;;;12.93;2.20;;;17.00;60.30;;;;;;10359554;28;20116;-51
2022/04/07 16:32:54;;;;;;;13.10;2.40;;;17.00;59.60;;;;;;10374859;28;20446;-51
2022/04/07 16:37:55;;;;;;;9.55;2.20;;;17.00;60.30;;;;;;10383460;28;20053;-51
2022/04/07 16:42:56;;;;;;;15.32;2.20;;;17.20;61.00;;;;;;10387138;28;20040;-55
2022/04/07 16:47:56;;;;;;;13.20;2.30;;;17.50;62.90;;;;;;10415497;28;20052;-52
2022/04/07 16:52:59;;;;;;;11.80;2.28;;;17.50;62.20;;;;;;10403562;28;20065;-52
2022/04/07 16:58:00;;;;;;;8.80;2.20;;;17.50;62.70;;;;;;10374299;28;20051;-53
2022/04/07 17:03:03;;;;;;;6.32;1.58;;;17.50;62.40;;;;;;10391738;28;20029;-53
2022/04/07 17:08:06;;;;;;;11.10;2.40;;;17.40;62.80;;;;;;10386959;28;20084;-47
2022/04/07 17:13:08;;;;;;;10.40;2.03;;;17.30;63.30;;;;;;10373272;28;20048;-55
2022/04/07 17:18:09;;;;;;;9.68;1.70;;;17.10;63.30;;;;;;10369433;28;20370;-53
2022/04/07 17:23:11;;;;;;;6.85;1.80;;;17.10;63.60;;;;;;10390539;28;20025;-54
2022/04/07 17:28:13;;;;;;;6.03;1.38;;;17.00;63.70;;;;;;10372478;28;20030;-53
2022/04/07 17:33:14;;;;;;;5.55;1.58;;;16.90;63.80;;;;;;10373156;28;20109;-51
2022/04/07 17:38:15;;;;;;;4.30;1.40;;;16.80;63.80;;;;;;10379879;28;20105;-54
2022/04/07 17:43:16;;;;;;;7.30;1.70;;;16.80;63.90;;;;;;10412222;28;20121;-53
2022/04/07 17:48:17;;;;;;;8.77;2.22;;;16.70;63.90;;;;;;10395680;28;20084;-55
2022/04/07 17:53:17;;;;;;;5.22;1.65;;;16.70;64.00;;;;;;10380202;28;20612;-54
2022/04/07 17:58:18;;;;;;;7.00;1.52;;;16.70;64.00;;;;;;10392525;28;20361;-53
2022/04/07 18:03:19;;;;;;;6.43;1.30;;;16.60;64.00;;;;;;10405500;28;20121;-55
2022/04/07 18:08:20;;;;;;;3.97;1.30;;;16.70;64.10;;;;;;10383218;28;20481;-53
2022/04/07 18:13:21;;;;;;;3.67;1.02;;;16.70;63.90;;;;;;10380240;28;20050;-54
2022/04/07 18:18:21;;;;;;;4.57;1.70;;;16.70;63.70;;;;;;10376265;28;20080;-53
2022/04/07 18:23:23;;;;;;;5.45;1.10;;;16.80;63.40;;;;;;10367161;28;20132;-55
2022/04/07 18:28:23;;;;;;;5.82;1.73;;;16.80;63.10;;;;;;10379563;28;20056;-53
2022/04/07 18:33:24;;;;;;;3.63;1.33;;;16.80;63.00;;;;;;10400212;28;20124;-54
2022/04/07 18:38:25;;;;;;;4.50;1.20;;;16.90;62.90;;;;;;10389743;28;20044;-53
2022/04/07 18:43:26;;;;;;;3.20;1.30;;;16.80;62.90;;;;;;10418848;28;20029;-54
2022/04/07 18:48:27;;;;;;;3.60;0.88;;;16.90;62.80;;;;;;10407771;28;20061;-53
2022/04/07 18:53:28;;;;;;;3.45;1.00;;;17.00;62.60;;;;;;10380096;28;20037;-52
2022/04/07 18:58:29;;;;;;;4.32;1.17;;;17.00;62.50;;;;;;10392659;28;20370;-52
2022/04/07 19:03:30;;;;;;;2.60;0.90;;;17.00;62.30;;;;;;10402394;28;20378;-54
2022/04/07 19:08:31;;;;;;;9.35;1.45;;;17.00;62.40;;;;;;10392865;28;20025;-52
2022/04/07 19:13:32;;;;;;;3.10;1.00;;;17.00;62.60;;;;;;10388093;28;20049;-52
2022/04/07 19:18:33;;;;;;;3.85;1.23;;;17.00;62.60;;;;;;10386110;28;20026;-51
2022/04/07 19:23:33;;;;;;;3.22;1.08;;;16.90;62.80;;;;;;10387128;28;20109;-54
2022/04/07 19:28:34;;;;;;;2.67;0.85;;;16.90;62.80;;;;;;10373480;28;20120;-52
2022/04/07 19:33:35;;;;;;;5.10;1.58;;;16.90;62.80;;;;;;10380615;28;20169;-52
2022/04/07 19:38:36;;;;;;;3.67;1.13;;;16.90;62.80;;;;;;10386732;28;20121;-52
2022/04/07 19:43:37;;;;;;;3.13;0.88;;;16.90;62.50;;;;;;10393959;28;20057;-52
2022/04/07 19:48:38;;;;;;;8.23;1.35;;;17.00;62.50;;;;;;10391793;28;20045;-51
2022/04/07 19:53:39;;;;;;;4.00;1.13;;;16.90;62.50;;;;;;10391923;28;20069;-52
2022/04/07 19:58:40;;;;;;;2.92;1.20;;;17.00;62.20;;;;;;10393172;28;20395;-50
2022/04/07 20:03:41;;;;;;;3.20;0.70;;;17.10;61.90;;;;;;10392264;28;20532;-52
2022/04/07 20:08:42;;;;;;;2.88;0.70;;;17.20;61.70;;;;;;10383026;28;20404;-51
2022/04/07 20:13:43;;;;;;;1.88;0.73;;;17.20;61.40;;;;;;10408276;28;20043;-53
2022/04/07 20:18:43;;;;;;;2.65;0.90;;;17.30;61.30;;;;;;10411499;28;20033;-54
2022/04/07 20:23:44;;;;;;;4.55;1.42;;;17.30;61.30;;;;;;10416394;28;20501;-53
2022/04/07 20:28:45;;;;;;;1.98;0.82;;;17.20;61.40;;;;;;10417144;28;20033;-49
2022/04/07 20:33:46;;;;;;;2.67;0.70;;;17.20;61.40;;;;;;10414743;28;20068;-53
2022/04/07 20:38:47;;;;;;;1.80;0.70;;;17.20;61.30;;;;;;10375751;28;20344;-52
2022/04/07 20:43:48;;;;;;;1.67;0.60;;;17.20;61.40;;;;;;10375867;28;20441;-52
2022/04/07 20:48:48;;;;;;;2.00;0.60;;;17.20;61.30;;;;;;10374284;28;20030;-52
2022/04/07 20:53:49;;;;;;;2.20;0.57;;;17.20;61.20;;;;;;10386079;28;20414;-50
2022/04/07 20:58:50;;;;;;;3.97;1.30;;;17.20;61.30;;;;;;10413657;28;20480;-51
2022/04/07 21:03:51;;;;;;;1.23;0.43;;;17.10;61.50;;;;;;10414871;28;20041;-53
2022/04/07 21:08:51;;;;;;;2.00;0.70;;;17.10;61.50;;;;;;10375850;28;20026;-53
2022/04/07 21:13:52;;;;;;;1.77;0.90;;;17.20;61.20;;;;;;10374215;28;20078;-52
2022/04/07 21:18:53;;;;;;;4.00;0.90;;;17.20;61.00;;;;;;10374550;28;20030;-52
2022/04/07 21:23:54;;;;;;;1.63;0.82;;;17.10;61.20;;;;;;10374017;28;20038;-53
2022/04/07 21:28:55;;;;;;;1.83;0.60;;;17.20;61.00;;;;;;10373884;28;20068;-53
2022/04/07 21:33:57;;;;;;;2.20;0.47;;;17.20;60.80;;;;;;10385417;28;20482;-52
2022/04/07 21:38:57;;;;;;;1.63;0.82;;;17.20;61.00;;;;;;10411346;28;20036;-52
2022/04/07 21:43:59;;;;;;;2.03;0.60;;;17.20;60.90;;;;;;10413336;28;20375;-53
2022/04/07 21:49:00;;;;;;;1.58;0.50;;;17.20;60.90;;;;;;10413435;28;20041;-53
2022/04/07 21:54:01;;;;;;;1.23;0.55;;;17.10;60.90;;;;;;10413082;28;20109;-53
2022/04/07 21:59:03;;;;;;;0.98;0.50;;;17.10;60.80;;;;;;10412840;28;20025;-52
2022/04/07 22:04:05;;;;;;;1.23;0.40;;;17.20;60.80;;;;;;10400363;28;20379;-54
2022/04/07 22:09:06;;;;;;;1.75;0.40;;;17.10;60.90;;;;;;10372992;28;20034;-52
2022/04/07 22:14:06;;;;;;;1.92;0.75;;;17.20;60.70;;;;;;10372528;28;20058;-52
2022/04/07 22:19:07;;;;;;;1.00;0.52;;;17.20;60.70;;;;;;10372352;28;20038;-52
2022/04/07 22:24:11;;;;;;;4.22;0.95;;;17.10;60.70;;;;;;10372348;28;20439;-52
2022/04/07 22:29:12;;;;;;;1.98;0.50;;;17.20;60.60;;;;;;10405830;28;20033;-53
2022/04/07 22:34:14;;;;;;;2.13;0.57;;;17.10;60.70;;;;;;10398683;28;20033;-52
2022/04/07 22:39:15;;;;;;;1.40;0.63;;;17.10;60.70;;;;;;10408424;28;20071;-53
2022/04/07 22:44:15;;;;;;;2.35;0.77;;;17.20;60.50;;;;;;10411971;28;20034;-51
2022/04/07 22:49:16;;;;;;;2.80;0.70;;;17.10;60.60;;;;;;10412218;28;20171;-52
2022/04/07 22:54:17;;;;;;;1.80;0.80;;;17.10;60.50;;;;;;10411770;28;20109;-53
2022/04/07 22:59:18;;;;;;;0.90;0.40;;;17.10;60.40;;;;;;10373297;28;20032;-53
2022/04/07 23:04:19;;;;;;;1.67;0.60;;;17.10;60.60;;;;;;10390000;28;20044;-51
2022/04/07 23:09:20;;;;;;;1.35;0.60;;;17.10;60.40;;;;;;10356483;28;20490;-53
2022/04/07 23:14:21;;;;;;;1.08;0.40;;;17.10;60.40;;;;;;10378361;28;20548;-54
2022/04/07 23:19:22;;;;;;;1.48;0.50;;;17.10;60.50;;;;;;10379151;28;20532;-53
2022/04/07 23:24:23;;;;;;;1.35;0.40;;;17.10;60.30;;;;;;10387862;28;20026;-53
2022/04/07 23:29:24;;;;;;;2.15;0.40;;;17.10;60.30;;;;;;10378677;28;20048;-51
2022/04/07 23:34:25;;;;;;;1.90;0.55;;;17.10;60.30;;;;;;10381962;28;20568;-54
2022/04/07 23:39:26;;;;;;;1.13;0.50;;;17.10;60.20;;;;;;10414686;28;20044;-53
2022/04/07 23:44:27;;;;;;;1.73;0.50;;;17.10;60.20;;;;;;10418767;28;20033;-54
2022/04/07 23:49:30;;;;;;;2.30;0.82;;;17.10;60.20;;;;;;10417710;28;20406;-52
2022/04/07 23:54:31;;;;;;;0.98;0.43;;;17.10;60.20;;;;;;10418154;28;20037;-53
2022/04/07 23:59:32;;;;;;;1.27;0.40;;;17.20;60.00;;;;;;10417388;28;20493;-53
